Pagrindinis puslapis
METAR-TAF:

METAR-TAF

Oro uostai :

Taba, Egiptas

platuma: 29-35-57N, ilguma: 034-46-36E, Aukštis: 749 m

Dabartinis oras

Ataskaita buvo paskelbta 24 minutes, ne 23:00 UTC
Vėjas 10 kt iš Vakarų
Temperatūra 28°C
Drėgmė 70%
Slėgis 1005 hPa
Matomumas 10 km arba daugiau
nėra debesų žemiau 1500 m ir nėra kamuolinių lietaus debesų

METAR: HETB 142300Z 27010KT CAVOK 28/22 Q1005 NOSIG

Laikas: 01:24 (23:24 UTC)

Prognozė

Ataskaita buvo paskelbta 6 valandos ir 24 minutes, ne 17:00 UTC
Prognozė galioja nuo 14 metu 18 UTC su 15 metu 24 UTC
Vėjas 12 kt iš Šiaurės
Matomumas 10 km arba daugiau
nėra debesų žemiau 1500 m ir nėra kamuolinių lietaus debesų

TAF: HETB 141700Z 1418/1524 36012KT CAVOK

Orai ataskaitas ir orų prognozės (METAR, TAF).

turimą stotys yra geltonos ir raudonos taškus žemėlapyje.

Perkelti pele per norėdami pamatyti stoties vardą.

Tada spustelėkite, norėdami matyti oro stebėjimo ir prognozės.

Norėdami pakeisti žemėlapį: spustelėkite ant žalios mygtukų su juodo kryžiaus žemyn,; žalią mygtuką su brūkšneliu, jei norite nutolinti; arba žalių rodyklių gretimoms žemėlapius.


METAR-TAF: